Redoak, Ohio
Current Conditions -  °F | °C
As of 1:55 PM on Thursday 23 Oct 2014 (Local Time) from KFGX Reporting Station
Broken Clouds Broken Clouds  
Wind Chill: 13°   Ceiling: 3100
Heat Index: 13°   Visibility: 10mi
Dew Point:   Wind: 0mph
Humidity: 60%   Direction: NA
Pressure: 30.2"   Gusts: NA
Location:  38.776°N, 83.7985°W
Report Text: KFGX 231755Z AUTO 00000KT 10SM BKN031 13/05 A3020 RMK AO2 T01260050 10133 20051
Loading
Personal Weather Stations






























Interactive Weather Map
Tropical Storm Tracking
New forecast layout! Learn more

10-Day Weather Forecast

Advertisements
Track Severe Weather on mobile